createdAt,value
2023-01-20T00:01:39.934Z,1.99
2023-01-20T00:04:07.813Z,1.97
2023-01-20T00:06:36.078Z,1.96
2023-01-20T00:09:05.325Z,1.94
2023-01-20T00:11:33.544Z,1.91
2023-01-20T00:14:02.618Z,1.90
2023-01-20T00:16:32.209Z,1.87
2023-01-20T00:19:00.608Z,1.86
2023-01-20T00:21:28.431Z,1.85
2023-01-20T00:23:56.507Z,1.84
2023-01-20T00:26:25.168Z,1.82
2023-01-20T00:28:55.052Z,1.79
2023-01-20T00:31:25.840Z,1.78
2023-01-20T00:33:56.111Z,1.76
2023-01-20T00:36:25.729Z,1.75
2023-01-20T00:38:54.007Z,1.74
2023-01-20T00:41:21.860Z,1.74
2023-01-20T00:43:50.070Z,1.73
2023-01-20T00:46:18.031Z,1.73
2023-01-20T00:48:46.580Z,1.73
2023-01-20T00:51:14.570Z,1.72
2023-01-20T00:53:42.414Z,1.72
2023-01-20T00:56:10.279Z,1.71
2023-01-20T00:58:38.059Z,1.71
2023-01-20T07:00:16.642Z,2.14
2023-01-20T07:02:44.554Z,2.14
2023-01-20T07:05:12.872Z,2.15
2023-01-20T07:07:44.485Z,2.16
2023-01-20T07:10:12.934Z,2.19
2023-01-20T07:12:40.694Z,2.20
2023-01-20T07:15:08.921Z,2.20
2023-01-20T07:17:36.707Z,2.21
2023-01-20T07:20:05.164Z,2.21
2023-01-20T07:22:32.970Z,2.22
2023-01-20T07:25:00.761Z,2.24
2023-01-20T07:27:28.533Z,2.26
2023-01-20T07:29:56.362Z,2.27
2023-01-20T07:32:24.183Z,2.30
2023-01-20T07:34:51.990Z,2.32
2023-01-20T07:37:19.762Z,2.33
2023-01-20T07:39:47.628Z,2.35
2023-01-20T07:42:15.384Z,2.36
2023-01-20T07:44:43.191Z,2.37
2023-01-20T07:47:10.925Z,2.40
2023-01-20T07:49:38.773Z,2.42
2023-01-20T07:52:06.641Z,2.44
2023-01-20T07:54:34.954Z,2.45
2023-01-20T07:57:02.782Z,2.46
2023-01-20T07:59:30.655Z,2.48
2023-01-20T08:01:58.478Z,2.48
2023-01-20T08:04:26.454Z,2.49
2023-01-20T08:06:54.448Z,2.49
2023-01-20T08:09:22.130Z,2.48
2023-01-20T08:11:49.983Z,2.49
2023-01-20T08:14:17.737Z,2.47
2023-01-20T08:16:45.753Z,2.45
2023-01-20T08:19:13.678Z,2.44
2023-01-20T08:21:41.473Z,2.43
2023-01-20T08:24:10.767Z,2.43
2023-01-20T08:26:38.528Z,2.42
2023-01-20T08:29:10.225Z,2.41
2023-01-20T08:31:38.588Z,2.42
2023-01-20T08:34:06.599Z,2.43
2023-01-20T08:36:37.234Z,2.43
2023-01-20T08:39:08.170Z,2.43
2023-01-20T08:41:38.496Z,2.42
2023-01-20T08:44:08.163Z,2.43
2023-01-20T08:46:39.857Z,2.45
2023-01-20T08:49:13.049Z,2.46
2023-01-20T08:51:41.102Z,2.47
2023-01-20T08:54:09.602Z,2.49
2023-01-20T08:56:37.464Z,2.51
2023-01-20T08:59:05.328Z,2.50
2023-01-20T09:01:36.324Z,2.50
2023-01-20T09:04:07.082Z,2.50
2023-01-20T09:06:44.807Z,2.49
2023-01-20T09:09:14.303Z,2.50
2023-01-20T09:11:44.994Z,2.52
2023-01-20T09:14:12.985Z,2.52
2023-01-20T09:16:40.764Z,2.53
2023-01-20T09:19:08.608Z,2.55
2023-01-20T09:21:36.505Z,2.57
2023-01-20T09:24:05.490Z,2.58
2023-01-20T09:26:38.753Z,2.59
2023-01-20T09:29:10.845Z,2.63
2023-01-20T09:31:44.705Z,2.66
2023-01-20T09:34:21.621Z,2.68
2023-01-20T09:37:19.931Z,2.69
2023-01-20T09:40:07.063Z,2.71
2023-01-20T09:43:14.835Z,2.75
2023-01-20T09:45:56.765Z,2.82
2023-01-20T09:48:49.551Z,2.87
2023-01-20T09:51:51.432Z,2.90
2023-01-20T09:54:25.928Z,2.90
2023-01-20T09:56:58.120Z,2.90
2023-01-20T09:59:41.246Z,2.87
2023-01-20T10:02:18.878Z,2.89
2023-01-20T10:04:52.725Z,2.91
2023-01-20T10:07:51.436Z,2.95
2023-01-20T10:10:35.302Z,3.02
2023-01-20T10:13:08.594Z,3.05
2023-01-20T10:15:37.934Z,3.05
2023-01-20T10:18:06.075Z,3.04
2023-01-20T10:20:37.504Z,3.06
2023-01-20T10:23:16.111Z,3.05
2023-01-20T10:26:28.881Z,3.00
2023-01-20T10:29:04.293Z,2.95
2023-01-20T10:31:38.245Z,2.92
2023-01-20T10:34:17.325Z,2.91
2023-01-20T10:36:51.008Z,2.89
2023-01-20T10:39:35.576Z,2.90
2023-01-20T10:42:10.111Z,2.88
2023-01-20T10:44:38.052Z,2.89
2023-01-20T10:47:37.150Z,2.92
2023-01-20T10:50:33.337Z,2.94
2023-01-20T10:53:19.268Z,2.93
2023-01-20T10:56:13.059Z,2.92
2023-01-20T10:58:45.315Z,2.92
2023-01-20T11:01:19.221Z,2.91
2023-01-20T11:03:48.992Z,2.90
2023-01-20T11:06:22.365Z,2.90
2023-01-20T11:08:50.185Z,2.91
2023-01-20T11:11:21.852Z,2.92
2023-01-20T11:13:54.050Z,2.93
2023-01-20T11:16:29.030Z,2.95
2023-01-20T11:19:06.171Z,2.96
2023-01-20T11:21:36.994Z,2.95
2023-01-20T11:24:31.884Z,2.97
2023-01-20T11:27:11.359Z,2.98
2023-01-20T11:29:45.095Z,2.98
2023-01-20T11:32:45.422Z,2.97
2023-01-20T11:35:24.558Z,2.98
2023-01-20T11:37:52.775Z,3.01
2023-01-20T11:40:26.699Z,3.02
2023-01-20T11:42:55.419Z,3.02
2023-01-20T11:45:27.433Z,3.02
2023-01-20T11:48:15.976Z,3.02
2023-01-20T11:50:50.275Z,3.04
2023-01-20T11:53:26.203Z,3.07
2023-01-20T11:56:18.385Z,3.09
2023-01-20T11:58:57.744Z,3.10
2023-01-20T12:01:30.804Z,3.11
2023-01-20T12:04:17.844Z,3.14
2023-01-20T12:07:07.348Z,3.18
2023-01-20T12:09:44.994Z,3.23
2023-01-20T12:12:36.153Z,3.27
2023-01-20T12:15:11.218Z,3.31
2023-01-20T12:17:45.853Z,3.35
2023-01-20T12:20:21.046Z,3.39
2023-01-20T12:23:01.828Z,3.44
2023-01-20T12:25:43.517Z,3.48
2023-01-20T12:28:25.303Z,3.52
2023-01-20T12:30:59.426Z,3.57
2023-01-20T12:33:33.120Z,3.60
2023-01-20T12:36:06.101Z,3.62
2023-01-20T12:38:53.635Z,3.63
2023-01-20T12:41:57.027Z,3.60
2023-01-20T12:44:32.165Z,3.56
2023-01-20T12:47:33.775Z,3.54
2023-01-20T12:50:14.104Z,3.52
2023-01-20T12:52:55.564Z,3.52
2023-01-20T12:55:37.868Z,3.51
2023-01-20T12:58:40.060Z,3.49
2023-01-20T13:01:29.669Z,3.44
2023-01-20T13:04:35.527Z,3.40
2023-01-20T13:07:21.560Z,3.37
2023-01-20T13:09:55.157Z,3.35
2023-01-20T13:12:41.769Z,3.33
2023-01-20T13:15:34.815Z,3.32
2023-01-20T13:18:26.026Z,3.32
2023-01-20T13:20:55.631Z,3.30
2023-01-20T13:23:29.739Z,3.28
2023-01-20T13:26:00.249Z,3.26
2023-01-20T13:28:30.413Z,3.25
2023-01-20T13:31:00.744Z,3.24
2023-01-20T13:33:28.695Z,3.23
2023-01-20T13:35:57.711Z,3.23
2023-01-20T13:38:33.129Z,3.21
2023-01-20T13:41:06.482Z,3.19
2023-01-20T13:43:53.427Z,3.17
2023-01-20T13:46:21.439Z,3.13
2023-01-20T13:49:11.381Z,3.10
2023-01-20T13:51:39.143Z,3.07
2023-01-20T13:54:34.360Z,3.03
2023-01-20T13:57:20.597Z,3.03
2023-01-20T13:59:48.353Z,3.01
2023-01-20T14:02:18.043Z,3.00
2023-01-20T14:04:46.344Z,2.96
2023-01-20T14:07:28.800Z,2.94
2023-01-20T14:09:59.555Z,2.92
2023-01-20T14:12:27.910Z,2.90
2023-01-20T14:14:55.977Z,2.88
2023-01-20T14:17:24.972Z,2.86
2023-01-20T14:19:55.815Z,2.86
2023-01-20T14:22:30.168Z,2.85
2023-01-20T14:25:00.807Z,2.84
2023-01-20T14:27:32.406Z,2.83
2023-01-20T14:30:14.681Z,2.83
2023-01-20T14:32:42.686Z,2.80
2023-01-20T14:35:28.168Z,2.78
2023-01-20T14:37:56.227Z,2.76
2023-01-20T14:40:35.997Z,2.75
2023-01-20T14:43:15.526Z,2.73
2023-01-20T14:45:46.863Z,2.72
2023-01-20T14:48:28.259Z,2.72
2023-01-20T14:51:02.829Z,2.70
2023-01-20T14:53:30.846Z,2.70
2023-01-20T14:56:17.822Z,2.71
2023-01-20T14:58:54.006Z,2.69
2023-01-20T15:01:25.442Z,2.68
2023-01-20T15:03:59.074Z,2.67
2023-01-20T15:06:27.135Z,2.67
2023-01-20T15:09:06.120Z,2.65
2023-01-20T15:11:35.758Z,2.63
2023-01-20T15:14:06.088Z,2.62
2023-01-20T15:16:36.731Z,2.61
2023-01-20T15:19:13.857Z,2.61
2023-01-20T15:21:46.697Z,2.59
2023-01-20T15:24:22.330Z,2.58
2023-01-20T15:26:52.561Z,2.58
2023-01-20T15:29:29.328Z,2.58
2023-01-20T15:32:09.387Z,2.57
2023-01-20T15:34:37.382Z,2.57
2023-01-20T15:37:17.260Z,2.56
2023-01-20T15:39:45.177Z,2.56
2023-01-20T15:42:15.399Z,2.56
2023-01-20T15:44:43.150Z,2.54
2023-01-20T15:47:21.247Z,2.53
2023-01-20T15:49:49.521Z,2.52
2023-01-20T15:52:18.308Z,2.51
2023-01-20T15:54:46.744Z,2.51
2023-01-20T15:57:17.625Z,2.52
2023-01-20T15:59:46.543Z,2.52
2023-01-20T16:02:20.575Z,2.51
2023-01-20T16:04:49.998Z,2.50
2023-01-20T16:07:21.355Z,2.49
2023-01-20T16:09:49.615Z,2.47
2023-01-20T16:12:19.478Z,2.45
2023-01-20T16:14:48.061Z,2.45
2023-01-20T16:17:19.671Z,2.46
2023-01-20T16:19:49.422Z,2.46
2023-01-20T16:22:18.213Z,2.45
2023-01-20T16:24:49.233Z,2.43
2023-01-20T16:27:20.835Z,2.41
2023-01-20T16:29:49.895Z,2.41
2023-01-20T16:32:22.113Z,2.40
2023-01-20T16:34:50.849Z,2.40
2023-01-20T16:37:19.227Z,2.39
2023-01-20T16:39:47.499Z,2.38
2023-01-20T16:42:17.275Z,2.35
2023-01-20T16:44:45.603Z,2.34
2023-01-20T16:47:14.080Z,2.32
2023-01-20T16:49:42.643Z,2.32
2023-01-20T16:52:12.379Z,2.32
2023-01-20T16:54:41.226Z,2.31
2023-01-20T16:57:10.657Z,2.30
2023-01-20T16:59:38.941Z,2.29
2023-01-20T17:02:07.449Z,2.30
2023-01-20T17:04:36.121Z,2.31
2023-01-20T17:07:04.266Z,2.31
2023-01-20T17:09:32.434Z,2.31
2023-01-20T17:12:00.679Z,2.32
2023-01-20T17:14:28.894Z,2.32
2023-01-20T17:16:58.649Z,2.31
2023-01-20T17:19:27.069Z,2.32
2023-01-20T17:21:57.053Z,2.33
2023-01-20T17:24:26.855Z,2.34
2023-01-20T17:26:55.299Z,2.35
2023-01-20T17:29:23.539Z,2.36
2023-01-20T17:31:52.331Z,2.37
2023-01-20T17:34:20.735Z,2.36
2023-01-20T17:36:49.137Z,2.36
2023-01-20T17:39:17.464Z,2.35
2023-01-20T17:41:46.157Z,2.34
2023-01-20T17:44:14.944Z,2.32
2023-01-20T17:46:43.422Z,2.30
2023-01-20T17:49:11.848Z,2.27
2023-01-20T17:51:41.116Z,2.25
2023-01-20T17:54:09.867Z,2.25
2023-01-20T17:56:38.815Z,2.25
2023-01-20T17:59:07.249Z,2.24
2023-01-20T18:01:35.671Z,2.23
2023-01-20T18:04:06.732Z,2.20
2023-01-20T18:06:35.733Z,2.18
2023-01-20T18:09:07.501Z,2.17
2023-01-20T18:11:37.791Z,2.14
2023-01-20T18:14:07.180Z,2.11
2023-01-20T18:16:41.953Z,2.08
2023-01-20T18:19:13.299Z,2.05
2023-01-20T18:21:43.701Z,2.02
2023-01-20T18:24:13.767Z,2.00
2023-01-20T18:26:45.315Z,1.99
2023-01-20T18:29:16.809Z,1.97
2023-01-20T18:31:46.841Z,1.97
2023-01-20T18:34:16.396Z,1.97
2023-01-20T18:36:46.439Z,1.96
2023-01-20T18:39:17.758Z,1.96
2023-01-20T18:41:47.226Z,1.97
2023-01-20T18:44:15.744Z,1.96
2023-01-20T18:46:44.130Z,1.95
2023-01-20T18:49:14.964Z,1.94
2023-01-20T18:51:43.844Z,1.95
2023-01-20T18:54:15.188Z,1.95
2023-01-20T18:56:43.954Z,1.97
2023-01-20T18:59:13.361Z,1.98
2023-01-20T19:01:42.582Z,1.98
2023-01-20T19:04:13.644Z,2.00
2023-01-20T19:06:45.073Z,2.00
2023-01-20T19:09:16.121Z,2.00
2023-01-20T19:11:44.062Z,1.99
2023-01-20T19:14:14.094Z,2.00
2023-01-20T19:16:45.402Z,2.01
2023-01-20T19:19:13.748Z,2.01
2023-01-20T19:21:42.489Z,2.00
2023-01-20T19:24:17.354Z,2.00
2023-01-20T19:26:45.441Z,1.98
2023-01-20T19:29:16.089Z,1.98
2023-01-20T19:31:44.242Z,1.98
2023-01-20T19:34:13.289Z,1.98
2023-01-20T19:36:43.606Z,1.99
2023-01-20T19:39:11.886Z,2.01
2023-01-20T19:41:39.855Z,2.01
2023-01-20T19:44:08.170Z,2.02
2023-01-20T19:46:39.636Z,2.03
2023-01-20T19:49:08.284Z,2.02
2023-01-20T19:51:36.838Z,2.04
2023-01-20T19:54:06.338Z,2.05
2023-01-20T19:56:36.556Z,2.07
2023-01-20T19:59:06.245Z,2.07
2023-01-20T20:01:37.169Z,2.06
2023-01-20T20:04:14.318Z,2.06
2023-01-20T20:06:46.976Z,2.07
2023-01-20T20:09:19.189Z,2.08
2023-01-20T20:11:48.663Z,2.08
2023-01-20T20:14:19.644Z,2.09
2023-01-20T20:16:48.152Z,2.08
2023-01-20T20:19:19.124Z,2.08
2023-01-20T20:21:47.391Z,2.09
2023-01-20T20:24:16.987Z,2.08
2023-01-20T20:26:46.421Z,2.08
2023-01-20T20:29:15.883Z,2.09
2023-01-20T20:31:43.907Z,2.09
2023-01-20T20:34:15.354Z,2.09
2023-01-20T20:36:43.920Z,2.09
2023-01-20T20:39:16.667Z,2.09
2023-01-20T20:41:45.354Z,2.11
2023-01-20T20:44:13.555Z,2.10
2023-01-20T20:46:41.671Z,2.09
2023-01-20T20:49:15.989Z,2.08
2023-01-20T20:51:44.103Z,2.08
2023-01-20T20:54:14.198Z,2.10
2023-01-20T20:56:42.168Z,2.11
2023-01-20T20:59:10.454Z,2.12
2023-01-20T21:01:38.324Z,2.14
2023-01-20T21:04:06.687Z,2.15
2023-01-20T21:06:34.554Z,2.16
2023-01-20T21:09:02.423Z,2.15
2023-01-20T21:11:30.241Z,2.16
2023-01-20T21:13:58.558Z,2.15
2023-01-20T21:16:27.753Z,2.14
2023-01-20T21:18:56.868Z,2.14
2023-01-20T21:21:25.732Z,2.14
2023-01-20T21:23:55.978Z,2.15
2023-01-20T21:26:27.642Z,2.18
2023-01-20T21:28:57.221Z,2.17
2023-01-20T21:31:26.875Z,2.17
2023-01-20T21:33:58.553Z,2.17
2023-01-20T21:36:27.214Z,2.18
2023-01-20T21:38:55.342Z,2.17
2023-01-20T21:41:23.207Z,2.17
2023-01-20T21:44:09.613Z,2.17
2023-01-20T21:46:40.280Z,2.18
2023-01-20T21:49:47.647Z,2.17
2023-01-20T21:52:36.702Z,2.18
2023-01-20T21:55:06.172Z,2.18
2023-01-20T21:57:34.061Z,2.18
2023-01-20T22:00:03.463Z,2.17
2023-01-20T22:02:31.333Z,2.18
2023-01-20T22:04:59.195Z,2.17
2023-01-20T22:07:27.472Z,2.16
2023-01-20T22:09:57.907Z,2.17
2023-01-20T22:12:26.176Z,2.16
2023-01-20T22:14:53.943Z,2.15
2023-01-20T22:17:21.704Z,2.12
2023-01-20T22:19:49.457Z,2.12
2023-01-20T22:22:17.527Z,2.10
2023-01-20T22:24:45.392Z,2.10
2023-01-20T22:27:13.262Z,2.08
2023-01-20T22:29:41.131Z,2.09
2023-01-20T22:32:09.403Z,2.08
2023-01-20T22:34:37.370Z,2.07
2023-01-20T22:37:05.645Z,2.06
2023-01-20T22:39:33.513Z,2.05
2023-01-20T22:42:01.383Z,2.05
2023-01-20T22:44:29.266Z,2.04
2023-01-20T22:46:57.106Z,2.03
2023-01-20T22:49:24.980Z,2.02
2023-01-20T22:51:54.992Z,1.99
2023-01-20T22:54:22.957Z,1.97
2023-01-20T22:56:50.701Z,1.93
2023-01-20T22:59:18.432Z,1.92
2023-01-20T23:01:46.183Z,1.92
2023-01-20T23:04:15.172Z,1.93
2023-01-20T23:06:42.922Z,1.95
2023-01-20T23:09:12.974Z,1.95
2023-01-20T23:11:41.455Z,1.96
2023-01-20T23:14:12.949Z,1.97
2023-01-20T23:16:41.257Z,1.96
2023-01-20T23:19:10.044Z,1.95
2023-01-20T23:21:37.889Z,1.94
2023-01-20T23:24:05.750Z,1.95
2023-01-20T23:26:34.378Z,1.96
2023-01-20T23:29:02.111Z,1.97
2023-01-20T23:31:33.401Z,1.97
2023-01-20T23:34:01.244Z,1.96
2023-01-20T23:36:29.067Z,1.97
2023-01-20T23:38:57.264Z,1.95
2023-01-20T23:41:25.660Z,1.96
2023-01-20T23:43:53.495Z,1.96
2023-01-20T23:46:21.446Z,1.96
2023-01-20T23:48:49.448Z,1.95
2023-01-20T23:51:17.626Z,1.94
2023-01-20T23:53:45.387Z,1.91
2023-01-20T23:56:16.491Z,1.90
2023-01-20T23:58:45.149Z,1.89
